Time;durP1;ratioP1;P1;durP2;ratioP2;P2;SDS_P1;SDS_P2;PMS_P1;PMS_P2;Temp;Humidity;BMP_temperature;BMP_pressure;BME280_temperature;BME280_humidity;BME280_pressure;Samples;Min_cycle;Max_cycle;Signal;HPM_P1;HPM_P2
2022/07/27 00:00:08;;;;;;;0.50;0.50;;;19.70;94.00;;;;;;5073587;28;20473;-82
2022/07/27 00:02:34;;;;;;;0.40;0.33;;;19.70;93.90;;;;;;5072660;28;20449;-82
2022/07/27 00:05:01;;;;;;;0.50;0.47;;;19.70;94.00;;;;;;5073569;28;20444;-82
2022/07/27 00:07:28;;;;;;;3.07;0.50;;;19.60;93.90;;;;;;5073566;28;20449;-83
2022/07/27 00:09:55;;;;;;;0.80;0.60;;;19.70;93.70;;;;;;5073505;28;20469;-83
2022/07/27 00:12:21;;;;;;;0.60;0.60;;;19.60;93.80;;;;;;5073273;28;20456;-83
2022/07/27 00:14:48;;;;;;;0.73;0.50;;;19.60;93.80;;;;;;5072976;28;20843;-83
2022/07/27 00:17:21;;;;;;;0.80;0.70;;;19.70;94.10;;;;;;5073263;28;20493;-83
2022/07/27 00:19:48;;;;;;;1.00;0.60;;;19.70;94.30;;;;;;5073207;28;20465;-82
2022/07/27 00:22:15;;;;;;;0.50;0.50;;;19.70;94.10;;;;;;5073209;28;20464;-82
2022/07/27 00:24:42;;;;;;;1.10;0.60;;;19.70;94.00;;;;;;5073194;28;20456;-82
2022/07/27 00:27:09;;;;;;;0.80;0.80;;;19.70;94.20;;;;;;5073146;28;20443;-82
2022/07/27 00:29:36;;;;;;;0.40;0.40;;;19.70;94.20;;;;;;5072773;28;20469;-82
2022/07/27 00:32:03;;;;;;;1.77;0.53;;;19.80;94.20;;;;;;5072801;28;20816;-83
2022/07/27 00:34:31;;;;;;;0.60;0.60;;;19.80;94.60;;;;;;5073127;28;20459;-83
2022/07/27 00:36:57;;;;;;;0.80;0.80;;;19.80;94.30;;;;;;5072675;28;21014;-83
2022/07/27 00:39:24;;;;;;;0.70;0.70;;;19.70;94.50;;;;;;5072702;28;20460;-83
2022/07/27 00:41:51;;;;;;;0.77;0.77;;;19.70;94.40;;;;;;5072568;28;20851;-82
2022/07/27 00:44:25;;;;;;;0.60;0.60;;;19.70;95.00;;;;;;5073021;28;20453;-82
2022/07/27 00:46:51;;;;;;;0.80;0.53;;;19.60;94.80;;;;;;5073054;28;20432;-82
2022/07/27 00:49:18;;;;;;;1.40;0.67;;;19.60;94.80;;;;;;5073019;28;20468;-82
2022/07/27 00:51:47;;;;;;;0.90;0.60;;;19.60;94.90;;;;;;5072937;28;20449;-82
2022/07/27 00:54:13;;;;;;;1.03;0.80;;;19.60;94.90;;;;;;5072611;28;20818;-82
2022/07/27 00:56:41;;;;;;;2.50;0.60;;;19.60;95.20;;;;;;5072888;28;20484;-83
2022/07/27 00:59:10;;;;;;;0.60;0.60;;;19.60;95.20;;;;;;5072769;28;20476;-83
2022/07/27 01:01:37;;;;;;;0.87;0.60;;;19.60;95.30;;;;;;5072819;28;20452;-82
2022/07/27 01:04:04;;;;;;;0.50;0.50;;;19.60;95.20;;;;;;5072810;28;20460;-82
2022/07/27 01:06:32;;;;;;;0.50;0.40;;;19.60;95.40;;;;;;5072503;28;20810;-82
2022/07/27 01:11:41;;;;;;;0.70;0.70;;;19.60;95.30;;;;;;5072147;28;20469;-82
2022/07/27 01:14:08;;;;;;;0.50;0.50;;;19.60;95.50;;;;;;5074782;28;20451;-82
2022/07/27 01:16:35;;;;;;;1.07;0.60;;;19.60;95.80;;;;;;5076250;28;20484;-82
2022/07/27 01:19:02;;;;;;;0.73;0.73;;;19.60;95.90;;;;;;5076254;28;20465;-82
2022/07/27 01:21:29;;;;;;;8.33;0.60;;;19.50;95.70;;;;;;5076228;28;20449;-83
2022/07/27 01:23:57;;;;;;;0.70;0.60;;;19.50;95.80;;;;;;5075909;28;20452;-82
2022/07/27 01:26:23;;;;;;;0.60;0.60;;;19.50;96.10;;;;;;5076840;28;20456;-82
2022/07/27 01:28:56;;;;;;;1.13;0.80;;;19.50;96.10;;;;;;5076028;28;20472;-83
2022/07/27 01:31:23;;;;;;;0.87;0.87;;;19.40;96.40;;;;;;5075795;28;20802;-83
2022/07/27 01:33:50;;;;;;;0.77;0.60;;;19.30;96.00;;;;;;5075708;28;20449;-82
2022/07/27 01:36:17;;;;;;;0.70;0.70;;;19.30;96.20;;;;;;5075885;28;20480;-82
2022/07/27 01:38:44;;;;;;;0.90;0.50;;;19.30;96.50;;;;;;5075926;28;20476;-82
2022/07/27 01:41:13;;;;;;;0.50;0.43;;;19.30;96.30;;;;;;5075446;28;20477;-82
2022/07/27 01:43:40;;;;;;;0.60;0.60;;;19.30;96.60;;;;;;5075560;28;20948;-82
2022/07/27 01:46:07;;;;;;;0.50;0.47;;;19.20;96.60;;;;;;5075556;28;20441;-82
2022/07/27 01:48:33;;;;;;;0.70;0.63;;;19.20;96.90;;;;;;5075724;28;20448;-82
2022/07/27 01:51:00;;;;;;;0.50;0.50;;;19.20;96.90;;;;;;5075932;28;20456;-82
2022/07/27 01:53:27;;;;;;;0.67;0.50;;;19.10;97.30;;;;;;5075378;28;20968;-82
2022/07/27 01:55:54;;;;;;;1.20;0.90;;;19.00;97.30;;;;;;5075773;28;20484;-82
2022/07/27 01:58:22;;;;;;;0.90;0.80;;;19.00;97.30;;;;;;5075243;28;20812;-82
2022/07/27 02:00:49;;;;;;;0.50;0.40;;;18.90;97.50;;;;;;5075535;28;20458;-82
2022/07/27 02:03:16;;;;;;;0.67;0.57;;;19.00;97.70;;;;;;5075153;28;20814;-82
2022/07/27 02:05:43;;;;;;;0.60;0.60;;;18.90;97.40;;;;;;5075429;28;20449;-82
2022/07/27 02:08:10;;;;;;;0.87;0.43;;;18.90;97.80;;;;;;5075418;28;20455;-83
2022/07/27 02:12:34;;;;;;;0.80;0.67;;;18.90;97.50;;;;;;5075293;28;20457;-82
2022/07/27 02:13:24;;;;;;;0.63;0.60;;;18.80;97.80;;;;;;5074827;28;20437;-82
2022/07/27 02:15:51;;;;;;;1.20;0.80;;;18.80;97.80;;;;;;5075187;28;20543;-82
2022/07/27 02:18:18;;;;;;;0.73;0.73;;;18.70;98.10;;;;;;5075206;28;20460;-82
2022/07/27 02:20:45;;;;;;;0.60;0.60;;;18.70;98.30;;;;;;5074749;28;21011;-82
2022/07/27 02:23:11;;;;;;;0.90;0.70;;;18.60;98.20;;;;;;5074768;28;20956;-82
2022/07/27 02:25:39;;;;;;;0.60;0.60;;;18.60;98.50;;;;;;5074211;28;20456;-82
2022/07/27 02:28:06;;;;;;;1.20;0.80;;;18.70;98.70;;;;;;5074945;28;20455;-82
2022/07/27 02:30:34;;;;;;;2.20;0.83;;;18.70;98.70;;;;;;5075013;28;20477;-82
2022/07/27 02:33:01;;;;;;;0.60;0.60;;;18.60;98.70;;;;;;5074902;28;20448;-82
2022/07/27 02:35:27;;;;;;;0.83;0.70;;;18.60;98.90;;;;;;5074567;28;20966;-82
2022/07/27 02:37:54;;;;;;;0.90;0.73;;;18.70;99.30;;;;;;5074789;28;21093;-82
2022/07/27 02:40:23;;;;;;;1.43;0.60;;;18.70;99.20;;;;;;5074514;28;20473;-82
2022/07/27 02:42:49;;;;;;;0.50;0.50;;;18.70;99.20;;;;;;5074684;28;20904;-82
2022/07/27 02:45:16;;;;;;;0.50;0.50;;;18.80;99.30;;;;;;5074425;28;20445;-82
2022/07/27 02:47:45;;;;;;;0.50;0.50;;;18.80;98.90;;;;;;5074338;28;20452;-82
2022/07/27 02:50:12;;;;;;;1.00;0.73;;;18.80;99.00;;;;;;5074197;28;20971;-82
2022/07/27 02:52:39;;;;;;;0.60;0.60;;;18.80;99.30;;;;;;5074493;28;20441;-82
2022/07/27 02:55:07;;;;;;;0.93;0.63;;;18.80;99.40;;;;;;5074462;28;20449;-82
2022/07/27 02:57:36;;;;;;;0.53;0.53;;;18.80;99.20;;;;;;5074475;28;20817;-82
2022/07/27 03:00:05;;;;;;;0.80;0.70;;;18.80;99.40;;;;;;5074334;28;20470;-82
2022/07/27 03:02:32;;;;;;;1.00;1.00;;;18.80;99.30;;;;;;5074307;28;20460;-83
2022/07/27 03:05:00;;;;;;;1.00;0.87;;;18.70;99.10;;;;;;5074283;28;20449;-82
2022/07/27 03:07:27;;;;;;;0.70;0.67;;;18.70;99.50;;;;;;5074239;28;20441;-82
2022/07/27 03:09:54;;;;;;;0.80;0.80;;;18.70;99.60;;;;;;5074127;28;20473;-82
2022/07/27 03:12:20;;;;;;;0.80;0.80;;;18.70;99.60;;;;;;5074314;28;20441;-82
2022/07/27 03:14:47;;;;;;;0.70;0.70;;;18.60;99.90;;;;;;5074086;28;20462;-82
2022/07/27 03:17:14;;;;;;;1.27;0.60;;;18.60;99.90;;;;;;5073974;28;20476;-82
2022/07/27 03:19:41;;;;;;;1.27;1.27;;;18.50;99.90;;;;;;5073950;28;20473;-82
2022/07/27 03:22:09;;;;;;;0.77;0.70;;;18.50;99.90;;;;;;5073932;28;20448;-82
2022/07/27 03:24:36;;;;;;;0.70;0.70;;;18.40;99.90;;;;;;5073609;28;20823;-82
2022/07/27 03:27:03;;;;;;;1.87;1.10;;;18.40;99.90;;;;;;5073560;28;20945;-82
2022/07/27 03:29:30;;;;;;;4.03;1.20;;;18.40;99.90;;;;;;5073767;28;20472;-82
2022/07/27 03:31:57;;;;;;;0.70;0.70;;;18.40;99.90;;;;;;5074036;28;20449;-82
2022/07/27 03:34:23;;;;;;;1.17;0.80;;;18.30;99.90;;;;;;5074059;28;20448;-82
2022/07/27 03:36:50;;;;;;;0.50;0.43;;;18.30;99.90;;;;;;5072415;28;21020;-82
2022/07/27 03:39:18;;;;;;;0.80;0.80;;;18.30;99.90;;;;;;5073616;28;20471;-82
2022/07/27 03:41:45;;;;;;;1.07;0.80;;;18.20;99.90;;;;;;5073177;28;20832;-82
2022/07/27 03:44:12;;;;;;;1.10;0.80;;;18.20;99.90;;;;;;5073321;28;20962;-82
2022/07/27 03:46:38;;;;;;;0.90;0.90;;;18.20;99.90;;;;;;5073789;28;20455;-82
2022/07/27 03:49:05;;;;;;;1.40;0.80;;;18.10;99.90;;;;;;5073504;28;20491;-82
2022/07/27 03:51:32;;;;;;;0.70;0.67;;;18.00;99.90;;;;;;5073209;28;20823;-82
2022/07/27 03:53:59;;;;;;;0.53;0.53;;;18.00;99.90;;;;;;5073234;28;20955;-82
2022/07/27 03:56:27;;;;;;;0.80;0.70;;;17.90;99.90;;;;;;5073394;28;20451;-82
2022/07/27 03:58:54;;;;;;;1.90;1.33;;;17.80;99.90;;;;;;5073172;28;20445;-82
2022/07/27 04:01:21;;;;;;;0.93;0.93;;;17.80;99.90;;;;;;5073429;28;20452;-82
2022/07/27 04:03:47;;;;;;;1.03;1.03;;;17.80;99.90;;;;;;5073402;28;20441;-82
2022/07/27 04:06:14;;;;;;;0.80;0.67;;;17.80;99.90;;;;;;5073607;28;20449;-82
2022/07/27 04:08:41;;;;;;;0.70;0.70;;;17.80;99.90;;;;;;5073311;28;20451;-82
2022/07/27 04:11:07;;;;;;;2.97;0.90;;;17.80;99.90;;;;;;5072995;28;20444;-82
2022/07/27 04:13:35;;;;;;;0.90;0.90;;;17.80;99.90;;;;;;5073300;28;20452;-82
2022/07/27 04:16:02;;;;;;;0.87;0.70;;;17.80;99.90;;;;;;5073319;28;20445;-82
2022/07/27 04:18:29;;;;;;;1.10;1.00;;;17.80;99.90;;;;;;5073098;28;20484;-82
2022/07/27 04:20:56;;;;;;;0.90;0.60;;;17.90;99.90;;;;;;5073254;28;20488;-82
2022/07/27 04:23:23;;;;;;;1.90;1.00;;;17.90;99.90;;;;;;5072919;28;20811;-82
2022/07/27 04:25:49;;;;;;;1.50;0.60;;;17.90;99.90;;;;;;5073247;28;20809;-82
2022/07/27 04:28:16;;;;;;;1.63;0.97;;;17.90;99.90;;;;;;5073185;28;20445;-82
2022/07/27 04:30:44;;;;;;;3.57;1.00;;;17.90;99.90;;;;;;5072910;28;20833;-82
2022/07/27 04:33:11;;;;;;;0.87;0.73;;;18.00;99.90;;;;;;5072868;28;20441;-82
2022/07/27 04:35:37;;;;;;;0.97;0.60;;;18.00;99.90;;;;;;5072811;28;20472;-82
2022/07/27 04:38:04;;;;;;;0.87;0.70;;;18.00;99.90;;;;;;5072979;28;20480;-82
2022/07/27 04:40:32;;;;;;;1.23;0.97;;;18.00;99.90;;;;;;5072613;28;21021;-82
2022/07/27 04:42:59;;;;;;;2.10;0.50;;;18.00;99.90;;;;;;5073003;28;20444;-82
2022/07/27 04:45:25;;;;;;;3.60;0.80;;;18.00;99.90;;;;;;5072718;28;20944;-82
2022/07/27 04:47:54;;;;;;;0.70;0.70;;;18.10;99.90;;;;;;5073185;28;20449;-82
2022/07/27 04:50:21;;;;;;;0.63;0.63;;;18.20;99.90;;;;;;5076876;28;20486;-82
2022/07/27 04:52:48;;;;;;;0.90;0.90;;;18.10;99.90;;;;;;5076780;28;20452;-82
2022/07/27 04:55:15;;;;;;;0.70;0.70;;;18.20;99.90;;;;;;5076804;28;20453;-82
2022/07/27 04:57:42;;;;;;;1.07;0.97;;;18.20;99.90;;;;;;5076230;28;20481;-82
2022/07/27 05:00:10;;;;;;;1.90;0.83;;;18.20;99.90;;;;;;5076582;28;20471;-82
2022/07/27 05:02:39;;;;;;;1.10;0.63;;;18.20;99.90;;;;;;5076626;28;20453;-82
2022/07/27 05:05:08;;;;;;;0.83;0.80;;;18.20;99.90;;;;;;5076239;28;20445;-82
2022/07/27 05:07:35;;;;;;;1.47;1.07;;;18.30;99.90;;;;;;5076517;28;20490;-82
2022/07/27 05:10:02;;;;;;;1.20;0.90;;;18.30;99.90;;;;;;5076385;28;20472;-82
2022/07/27 05:12:28;;;;;;;1.20;1.10;;;18.30;99.90;;;;;;5076384;28;20807;-82
2022/07/27 05:14:55;;;;;;;1.83;1.00;;;18.30;99.90;;;;;;5076342;28;20449;-82
2022/07/27 05:17:22;;;;;;;0.60;0.50;;;18.30;99.90;;;;;;5076250;28;20480;-82
2022/07/27 05:19:49;;;;;;;0.93;0.80;;;18.30;99.90;;;;;;5076303;28;20473;-82
2022/07/27 05:22:17;;;;;;;3.63;1.30;;;18.30;99.90;;;;;;5076272;28;20468;-82
2022/07/27 05:24:45;;;;;;;4.80;1.00;;;18.40;99.90;;;;;;5076183;28;20451;-82
2022/07/27 05:27:12;;;;;;;1.37;1.23;;;18.40;99.90;;;;;;5075988;28;20941;-82
2022/07/27 05:29:38;;;;;;;3.50;0.80;;;18.50;99.90;;;;;;5075761;28;21006;-82
2022/07/27 05:32:06;;;;;;;1.00;0.87;;;18.50;99.90;;;;;;5075857;28;20449;-81
2022/07/27 05:34:32;;;;;;;1.03;0.80;;;18.50;99.90;;;;;;5075816;28;20441;-82
2022/07/27 05:36:59;;;;;;;1.00;0.90;;;18.50;99.90;;;;;;5075875;28;20453;-82
2022/07/27 05:39:28;;;;;;;1.40;1.10;;;18.60;99.90;;;;;;5075850;28;20464;-82
2022/07/27 05:41:55;;;;;;;1.37;0.70;;;18.60;99.90;;;;;;5075743;28;20531;-82
2022/07/27 05:44:22;;;;;;;0.80;0.80;;;18.60;99.90;;;;;;5075938;28;20863;-82
2022/07/27 05:46:49;;;;;;;1.83;1.00;;;18.70;99.90;;;;;;5075976;28;20453;-82
2022/07/27 05:49:16;;;;;;;2.83;1.10;;;18.80;99.90;;;;;;5075409;28;20980;-82
2022/07/27 05:51:43;;;;;;;0.90;0.70;;;18.90;99.90;;;;;;5075577;28;20449;-82
2022/07/27 05:54:10;;;;;;;0.80;0.80;;;18.90;99.90;;;;;;5075708;28;20484;-83
2022/07/27 05:56:38;;;;;;;1.30;1.20;;;19.00;99.90;;;;;;5075684;28;20448;-82
2022/07/27 05:59:05;;;;;;;1.47;1.37;;;19.00;99.90;;;;;;5075252;28;20542;-82
2022/07/27 06:01:32;;;;;;;1.13;0.93;;;19.10;99.90;;;;;;5074649;28;20449;-82
2022/07/27 06:03:58;;;;;;;0.77;0.77;;;19.10;99.90;;;;;;5075415;28;20445;-82
2022/07/27 06:09:09;;;;;;;0.63;0.60;;;19.20;99.90;;;;;;5075564;28;20447;-82
2022/07/27 06:11:38;;;;;;;0.73;0.67;;;19.30;99.90;;;;;;5075437;28;20449;-82
2022/07/27 06:14:04;;;;;;;1.00;0.90;;;19.40;99.90;;;;;;5075375;28;20448;-82
2022/07/27 06:16:31;;;;;;;2.10;1.13;;;19.50;99.90;;;;;;5075259;28;20457;-82
2022/07/27 06:18:58;;;;;;;0.80;0.60;;;19.60;99.90;;;;;;5075152;28;20838;-82
2022/07/27 06:21:26;;;;;;;0.93;0.83;;;19.70;99.90;;;;;;5075219;28;20449;-82
2022/07/27 06:23:54;;;;;;;0.60;0.60;;;19.90;99.90;;;;;;5074893;28;21054;-82
2022/07/27 06:26:21;;;;;;;0.93;0.93;;;19.90;99.90;;;;;;5075027;28;20459;-82
2022/07/27 06:28:49;;;;;;;1.53;1.00;;;20.10;99.90;;;;;;5075075;28;20461;-82
2022/07/27 06:31:16;;;;;;;0.80;0.60;;;20.10;99.90;;;;;;5074935;28;20467;-82
2022/07/27 06:33:42;;;;;;;1.13;1.03;;;20.20;99.90;;;;;;5074789;28;20441;-82
2022/07/27 06:36:09;;;;;;;1.00;1.00;;;20.20;99.90;;;;;;5074729;28;20952;-82
2022/07/27 06:38:36;;;;;;;1.30;0.83;;;20.20;99.90;;;;;;5074703;28;20484;-82
2022/07/27 06:41:03;;;;;;;1.40;1.03;;;20.20;99.90;;;;;;5074608;28;20538;-82
2022/07/27 06:43:32;;;;;;;2.17;1.10;;;20.30;99.90;;;;;;5074680;28;20457;-82
2022/07/27 06:46:02;;;;;;;0.70;0.70;;;20.20;99.90;;;;;;5074654;28;20451;-82
2022/07/27 06:48:28;;;;;;;1.33;0.80;;;20.10;99.90;;;;;;5074587;28;20840;-82
2022/07/27 06:50:55;;;;;;;1.33;1.03;;;20.10;99.90;;;;;;5074546;28;20460;-82
2022/07/27 06:53:23;;;;;;;1.63;0.93;;;20.20;99.90;;;;;;5074567;28;20445;-82
2022/07/27 06:55:49;;;;;;;1.13;1.13;;;20.30;99.90;;;;;;5074148;28;20946;-83
2022/07/27 06:58:17;;;;;;;1.33;1.10;;;20.40;99.90;;;;;;5074007;28;20491;-83
2022/07/27 07:00:44;;;;;;;1.00;0.90;;;20.50;99.90;;;;;;5074027;28;20476;-83
2022/07/27 07:03:12;;;;;;;2.03;1.83;;;20.60;99.90;;;;;;5074628;28;20433;-84
2022/07/27 07:05:43;;;;;;;0.80;0.80;;;20.70;99.90;;;;;;5074260;28;20455;-83
2022/07/27 07:08:10;;;;;;;1.10;1.00;;;20.80;99.90;;;;;;5074532;28;20425;-83
2022/07/27 07:10:38;;;;;;;1.10;1.10;;;21.00;99.90;;;;;;5073993;28;20487;-84
2022/07/27 07:13:06;;;;;;;1.30;0.80;;;21.10;99.90;;;;;;5074169;28;20466;-84
2022/07/27 07:15:32;;;;;;;1.10;0.97;;;21.10;99.90;;;;;;5073828;28;20451;-82
2022/07/27 07:18:01;;;;;;;1.07;0.90;;;21.10;99.90;;;;;;5074571;28;20548;-83
2022/07/27 07:20:30;;;;;;;2.30;1.87;;;21.10;99.90;;;;;;5073709;28;21003;-82
2022/07/27 07:22:56;;;;;;;2.70;1.00;;;21.00;99.90;;;;;;5073938;28;20563;-82
2022/07/27 07:25:23;;;;;;;1.73;1.07;;;21.00;99.90;;;;;;5073926;28;20448;-82
2022/07/27 07:27:50;;;;;;;1.33;0.90;;;21.00;99.90;;;;;;5074171;28;20440;-82
2022/07/27 07:30:17;;;;;;;0.80;0.70;;;21.00;99.90;;;;;;5073838;28;20472;-82
2022/07/27 07:32:44;;;;;;;0.80;0.60;;;21.10;99.90;;;;;;5073812;28;20448;-82
2022/07/27 07:35:11;;;;;;;1.30;1.07;;;21.20;99.90;;;;;;5073870;28;20428;-82
2022/07/27 07:37:39;;;;;;;0.70;0.70;;;21.20;99.90;;;;;;5073390;28;20440;-82
2022/07/27 07:40:09;;;;;;;1.27;1.10;;;21.30;99.90;;;;;;5073443;28;20491;-83
2022/07/27 07:42:51;;;;;;;1.00;0.87;;;21.30;99.90;;;;;;5073574;28;20999;-88
2022/07/27 07:45:18;;;;;;;1.63;1.13;;;21.40;99.90;;;;;;5074617;28;20506;-84
2022/07/27 07:47:45;;;;;;;1.03;1.03;;;21.40;99.90;;;;;;5074685;28;20443;-82
2022/07/27 07:50:12;;;;;;;1.03;0.93;;;21.40;99.90;;;;;;5073574;28;20479;-82
2022/07/27 07:52:40;;;;;;;1.10;1.00;;;21.40;99.90;;;;;;5073480;28;20451;-79
2022/07/27 07:55:08;;;;;;;0.80;0.80;;;21.40;99.90;;;;;;5073623;28;20452;-79
2022/07/27 07:57:34;;;;;;;1.53;0.80;;;21.40;99.90;;;;;;5073432;28;20459;-79
2022/07/27 08:00:01;;;;;;;1.23;1.13;;;21.40;99.90;;;;;;5073253;28;20456;-78
2022/07/27 08:02:28;;;;;;;0.83;0.80;;;21.50;99.90;;;;;;5073439;28;20444;-79
2022/07/27 08:04:54;;;;;;;1.13;1.00;;;21.60;99.90;;;;;;5073468;28;20928;-79
2022/07/27 08:07:21;;;;;;;2.87;1.10;;;21.70;99.90;;;;;;5073339;28;20451;-79
2022/07/27 08:09:49;;;;;;;2.17;1.13;;;21.80;99.90;;;;;;5073286;28;20468;-79
2022/07/27 08:12:16;;;;;;;2.00;0.90;;;21.90;99.90;;;;;;5073381;28;20441;-78
2022/07/27 08:14:43;;;;;;;2.23;1.07;;;21.90;99.90;;;;;;5073352;28;20448;-79
2022/07/27 08:17:09;;;;;;;1.20;1.10;;;22.00;99.90;;;;;;5073296;28;20452;-79
2022/07/27 08:19:36;;;;;;;1.53;0.87;;;22.00;99.90;;;;;;5073165;28;20492;-79
2022/07/27 08:22:03;;;;;;;1.87;0.90;;;22.10;99.90;;;;;;5072971;28;20932;-79
2022/07/27 08:24:30;;;;;;;1.63;1.13;;;22.10;99.90;;;;;;5075955;28;20455;-79
2022/07/27 08:26:59;;;;;;;1.03;0.97;;;22.10;99.90;;;;;;5077356;28;20460;-79
2022/07/27 08:29:25;;;;;;;1.00;0.90;;;22.20;99.90;;;;;;5076952;28;20967;-78
2022/07/27 08:31:52;;;;;;;1.83;1.20;;;22.30;99.90;;;;;;5077295;28;20810;-79
2022/07/27 08:34:19;;;;;;;0.80;0.80;;;22.50;99.90;;;;;;5076958;28;20451;-79
2022/07/27 08:36:46;;;;;;;1.23;1.03;;;22.60;99.90;;;;;;5077108;28;20211;-79
2022/07/27 08:39:12;;;;;;;1.00;1.00;;;22.60;99.90;;;;;;5076675;28;20233;-79
2022/07/27 08:41:41;;;;;;;1.00;0.80;;;22.90;99.90;;;;;;5076931;28;20229;-78
2022/07/27 08:44:13;;;;;;;1.70;1.40;;;23.00;99.90;;;;;;5077063;28;20454;-79
2022/07/27 08:46:41;;;;;;;1.30;1.20;;;23.10;99.90;;;;;;5077057;28;20198;-79
2022/07/27 08:49:09;;;;;;;1.10;1.00;;;23.30;99.90;;;;;;5076855;28;20213;-79
2022/07/27 08:51:36;;;;;;;1.17;1.07;;;23.50;99.90;;;;;;5076910;28;20552;-79
2022/07/27 08:54:03;;;;;;;2.15;1.40;;;23.60;99.90;;;;;;5076531;28;20202;-79
2022/07/27 08:56:30;;;;;;;1.17;1.07;;;23.80;99.90;;;;;;5076805;28;20209;-79
2022/07/27 08:58:57;;;;;;;1.65;1.55;;;24.00;99.90;;;;;;5076570;28;20279;-79
2022/07/27 09:01:25;;;;;;;3.45;1.20;;;24.00;99.70;;;;;;5076678;28;20202;-79
2022/07/27 09:03:52;;;;;;;1.27;0.90;;;24.20;98.90;;;;;;5076591;28;20206;-78
2022/07/27 09:06:43;;;;;;;1.23;1.02;;;24.40;97.90;;;;;;5076623;28;20229;-79
2022/07/27 09:09:11;;;;;;;1.40;1.30;;;24.40;98.40;;;;;;5076476;28;20256;-79
2022/07/27 09:11:38;;;;;;;1.40;1.30;;;24.50;98.70;;;;;;5076459;28;20198;-79
2022/07/27 09:14:07;;;;;;;2.22;1.27;;;24.60;98.60;;;;;;5076413;28;20205;-78
2022/07/27 09:16:36;;;;;;;1.70;1.50;;;24.70;98.00;;;;;;5076411;28;20192;-79
2022/07/27 09:19:05;;;;;;;3.22;1.20;;;24.70;97.70;;;;;;5076213;28;20222;-79
2022/07/27 09:21:33;;;;;;;1.38;1.15;;;24.80;96.90;;;;;;5076265;28;20206;-79
2022/07/27 09:24:08;;;;;;;1.20;1.10;;;24.80;97.10;;;;;;5076038;28;20201;-79
2022/07/27 09:26:35;;;;;;;1.20;1.10;;;24.60;96.70;;;;;;5076254;28;20208;-79
2022/07/27 09:29:05;;;;;;;1.67;1.48;;;24.60;96.90;;;;;;5076131;28;20241;-79
2022/07/27 09:31:32;;;;;;;1.05;0.90;;;24.50;96.40;;;;;;5076103;28;20256;-78
2022/07/27 09:34:02;;;;;;;1.05;1.05;;;24.30;96.70;;;;;;5075678;28;20682;-78
2022/07/27 09:36:30;;;;;;;1.10;0.90;;;24.10;97.20;;;;;;5075974;28;20206;-79
2022/07/27 09:39:01;;;;;;;1.67;1.17;;;23.90;97.90;;;;;;5075858;28;20574;-79
2022/07/27 09:41:38;;;;;;;1.38;1.25;;;24.00;97.90;;;;;;5075564;28;20234;-79
2022/07/27 09:44:06;;;;;;;1.02;0.90;;;24.10;98.30;;;;;;5075886;28;20190;-79
2022/07/27 09:46:34;;;;;;;1.48;1.15;;;24.30;98.00;;;;;;5075904;28;20202;-79
2022/07/27 09:49:03;;;;;;;1.10;1.08;;;24.40;97.90;;;;;;5075482;28;20221;-79
2022/07/27 09:51:30;;;;;;;1.13;1.02;;;24.60;97.10;;;;;;5075763;28;20212;-79
2022/07/27 09:53:59;;;;;;;1.25;0.90;;;24.50;97.10;;;;;;5075410;28;20206;-79
2022/07/27 09:56:27;;;;;;;1.20;0.85;;;24.50;97.70;;;;;;5075372;28;20209;-78
2022/07/27 09:58:56;;;;;;;1.02;1.02;;;24.60;98.00;;;;;;5075491;28;20230;-79
2022/07/27 10:01:24;;;;;;;1.73;1.17;;;24.70;97.60;;;;;;5075285;28;20206;-79
2022/07/27 10:03:53;;;;;;;1.48;1.30;;;24.80;97.50;;;;;;5075557;28;20280;-79
2022/07/27 10:06:22;;;;;;;1.88;1.77;;;24.80;97.00;;;;;;5075544;28;20198;-79
2022/07/27 10:08:51;;;;;;;2.17;1.30;;;24.90;97.10;;;;;;5075334;28;20221;-79
2022/07/27 10:11:19;;;;;;;1.00;1.00;;;24.90;96.20;;;;;;5075694;28;20569;-79
2022/07/27 10:13:47;;;;;;;2.33;1.67;;;24.90;96.50;;;;;;5075360;28;20202;-79
2022/07/27 10:16:17;;;;;;;1.38;1.27;;;24.80;96.80;;;;;;5075315;28;20201;-79
2022/07/27 10:18:55;;;;;;;1.23;1.13;;;24.90;96.60;;;;;;5075142;28;20225;-79
2022/07/27 10:21:24;;;;;;;1.20;1.10;;;24.90;96.50;;;;;;5075282;28;20193;-79
2022/07/27 10:23:55;;;;;;;1.38;1.20;;;25.10;95.80;;;;;;5075220;28;20334;-78
2022/07/27 10:26:34;;;;;;;1.20;0.90;;;25.20;94.80;;;;;;5075108;28;20244;-79
2022/07/27 10:29:03;;;;;;;2.05;1.45;;;25.10;94.30;;;;;;5074679;28;20633;-79
2022/07/27 10:31:32;;;;;;;1.17;1.08;;;24.90;94.70;;;;;;5074700;28;20692;-79
2022/07/27 10:34:01;;;;;;;0.85;0.85;;;24.90;95.40;;;;;;5075224;28;20206;-79
2022/07/27 10:36:49;;;;;;;1.33;1.23;;;24.90;95.40;;;;;;5075136;28;20206;-79
2022/07/27 10:39:36;;;;;;;1.45;1.05;;;25.10;95.40;;;;;;5074736;28;20308;-79
2022/07/27 10:42:21;;;;;;;0.93;0.82;;;25.50;94.40;;;;;;5074389;28;20234;-78
2022/07/27 10:44:59;;;;;;;2.22;0.88;;;25.90;92.80;;;;;;5074988;28;20206;-78
2022/07/27 10:47:33;;;;;;;1.10;1.02;;;26.00;91.60;;;;;;5074140;28;20186;-78
2022/07/27 10:50:26;;;;;;;1.20;1.10;;;25.60;91.70;;;;;;5074836;28;20218;-79
2022/07/27 10:52:56;;;;;;;4.05;1.40;;;25.20;92.10;;;;;;5074730;28;20197;-79
2022/07/27 10:55:43;;;;;;;0.70;0.70;;;25.10;92.50;;;;;;5074545;28;20209;-79
2022/07/27 10:58:47;;;;;;;2.83;1.27;;;25.30;94.30;;;;;;5074432;28;20201;-79
2022/07/27 11:01:22;;;;;;;1.60;1.02;;;25.60;92.90;;;;;;5074504;28;20188;-78
2022/07/27 11:03:54;;;;;;;1.00;0.85;;;25.70;91.30;;;;;;5074385;28;20202;-78
2022/07/27 11:06:27;;;;;;;1.08;1.02;;;25.60;91.30;;;;;;5073975;28;20650;-79
2022/07/27 11:08:56;;;;;;;1.45;1.35;;;25.60;92.20;;;;;;5074172;28;20217;-79
2022/07/27 11:11:25;;;;;;;1.13;1.02;;;25.70;92.00;;;;;;5074184;28;20202;-78
2022/07/27 11:13:54;;;;;;;1.50;0.80;;;26.30;90.40;;;;;;5074017;28;20202;-79
2022/07/27 11:16:21;;;;;;;0.90;0.90;;;26.80;90.60;;;;;;5073780;28;20206;-78
2022/07/27 11:19:04;;;;;;;0.90;0.80;;;27.40;86.50;;;;;;5073913;28;20217;-78
2022/07/27 11:21:33;;;;;;;0.82;0.77;;;27.40;85.80;;;;;;5074060;28;20194;-79
2022/07/27 11:24:04;;;;;;;0.88;0.73;;;26.90;85.20;;;;;;5074010;28;20202;-79
2022/07/27 11:26:38;;;;;;;1.98;0.95;;;26.50;89.00;;;;;;5073923;28;20217;-79
2022/07/27 11:29:08;;;;;;;1.08;0.80;;;26.20;90.10;;;;;;5073851;28;20267;-79
2022/07/27 11:31:36;;;;;;;1.20;1.00;;;25.80;89.50;;;;;;5073803;28;20206;-79
2022/07/27 11:34:02;;;;;;;0.70;0.70;;;25.60;90.00;;;;;;5074591;28;20227;-79
2022/07/27 11:36:38;;;;;;;1.05;1.05;;;25.40;88.60;;;;;;5073722;28;20201;-79
2022/07/27 11:39:08;;;;;;;0.80;0.80;;;25.30;89.80;;;;;;5073794;28;20230;-79
2022/07/27 11:41:36;;;;;;;0.70;0.70;;;25.20;90.10;;;;;;5073510;28;20241;-79
2022/07/27 11:44:05;;;;;;;0.77;0.77;;;25.10;87.50;;;;;;5073904;28;20202;-79
2022/07/27 11:46:33;;;;;;;0.88;0.85;;;25.00;87.00;;;;;;5073621;28;20202;-79
2022/07/27 11:49:02;;;;;;;0.80;0.80;;;25.00;87.30;;;;;;5073514;28;20254;-79
2022/07/27 11:51:28;;;;;;;0.80;0.80;;;25.10;87.10;;;;;;5073255;28;20201;-78
2022/07/27 11:53:57;;;;;;;0.80;0.80;;;25.10;87.10;;;;;;5073582;28;20201;-78
2022/07/27 11:56:26;;;;;;;0.80;0.80;;;25.40;89.40;;;;;;5073265;28;20232;-79
2022/07/27 11:59:02;;;;;;;0.85;0.70;;;25.50;87.50;;;;;;5072657;28;20226;-79
2022/07/27 12:01:32;;;;;;;0.90;0.90;;;25.50;86.30;;;;;;5073452;28;20212;-79
2022/07/27 12:04:12;;;;;;;0.93;0.85;;;25.40;87.30;;;;;;5073973;28;20206;-79
2022/07/27 12:06:40;;;;;;;0.82;0.82;;;25.60;88.80;;;;;;5073470;28;20193;-79
2022/07/27 12:09:09;;;;;;;5.47;1.05;;;25.70;87.00;;;;;;5073354;28;20222;-79
2022/07/27 12:11:53;;;;;;;0.90;0.77;;;25.80;85.90;;;;;;5073360;28;20233;-79
2022/07/27 12:14:27;;;;;;;2.47;1.35;;;25.80;84.10;;;;;;5073392;28;20186;-79
2022/07/27 12:16:55;;;;;;;0.70;0.70;;;25.70;85.70;;;;;;5073269;28;20187;-79
2022/07/27 12:19:23;;;;;;;0.70;0.70;;;25.70;87.50;;;;;;5072825;28;20705;-79
2022/07/27 12:21:54;;;;;;;0.80;0.80;;;25.60;86.90;;;;;;5073295;28;20272;-79
2022/07/27 12:24:32;;;;;;;0.80;0.80;;;25.50;86.40;;;;;;5073779;28;20242;-79
2022/07/27 12:27:06;;;;;;;1.10;1.10;;;25.40;86.00;;;;;;5073537;28;20182;-79
2022/07/27 12:29:33;;;;;;;0.70;0.70;;;25.30;86.30;;;;;;5072715;28;20704;-79
2022/07/27 12:32:03;;;;;;;0.80;0.60;;;25.30;85.10;;;;;;5073129;28;20202;-79
2022/07/27 12:34:35;;;;;;;4.63;0.80;;;25.30;85.50;;;;;;5072882;28;20707;-78
2022/07/27 12:37:02;;;;;;;0.80;0.80;;;25.30;86.30;;;;;;5073142;28;20209;-79
2022/07/27 12:39:30;;;;;;;0.98;0.82;;;25.30;86.50;;;;;;5072921;28;20226;-78
2022/07/27 12:42:08;;;;;;;0.70;0.70;;;25.30;86.70;;;;;;5072863;28;20230;-78
2022/07/27 12:44:37;;;;;;;0.77;0.68;;;25.30;87.00;;;;;;5073045;28;20182;-78
2022/07/27 12:49:59;;;;;;;0.73;0.73;;;25.20;85.40;;;;;;5072339;28;20206;-78
2022/07/27 12:52:26;;;;;;;1.90;0.70;;;25.00;85.00;;;;;;5072967;28;20182;-79
2022/07/27 12:54:53;;;;;;;1.70;1.48;;;24.90;86.00;;;;;;5072926;28;20209;-80
2022/07/27 12:57:21;;;;;;;1.80;1.00;;;24.80;85.60;;;;;;5072921;28;20202;-80
2022/07/27 12:59:48;;;;;;;0.85;0.68;;;24.60;86.70;;;;;;5072776;28;20237;-79
2022/07/27 13:02:15;;;;;;;0.82;0.82;;;24.60;86.00;;;;;;5072867;28;20209;-80